首页
METAR-TAF:

METAR-TAF

机场 :

雅典埃莱夫塞里奥斯·韦尼泽洛斯国际机场

雅典, 希腊

纬度: 37-56N, 经度: 023-56E, 海拔: 94米

当前天气观测

该预报发布于31分钟前的09:50 UTC
风速5节,风向
温度 24°C
湿度 65%
气压 1019 hPa
能见度10公里或以上
少量云层高于2000英尺, 塔状积云.
散云层高于2500英尺

METAR: LGAV 190950Z 08005KT 9999 FEW020TCU SCT025 24/17 Q1019 NOSIG

时间: 13:21 (10:21 UTC)

预报

该预报发布于5小时和21分钟前的05:00 UTC
预报有效从19日的 06点(UTC)到 20日的 06点(UTC)
风速3节,风向多变
能見度: 8000
少量云层高于1500英尺
几率 30%
从 19日的 06点(UTC)到 19日的 09点(UTC)
能見度: 3000
散云层高于800英尺
轻雾
短暂存在
从 19日的 10点(UTC)到 19日的 15点(UTC)
风速10节,风向

TAF: LGAV 190500Z 1906/2006 VRB03KT 8000 FEW015 PROB30 1906/1909 3000 BR SCT008 TEMPO 1910/1915 10010KT

超过4000个机场的气象观测和天气预报(METAR&TAF报告)。

可查询的气象台以黄色和红色小点在地图上表示。

将鼠标移到小点上方,可查看气象台名称。

然后点击查看天气观测和预报。

如需切换地图:点击带黑十字的绿色按钮放大地图;点击带横线的绿色按钮缩小地图;或者点击绿色箭头查看邻近地区的地图。


METAR-TAF: